Somersett, Nevada
Current Conditions -  °F | °C
As of 11:55 PM on Sunday 23 Nov 2014 (Local Time) from KRNO Reporting Station
Clear Clear  
Wind Chill: 32°   Ceiling: Unl
Heat Index: 32°   Visibility: 10mi
Dew Point: 24°   Wind: 0mph
Humidity: 73%   Direction: NA
Pressure: 30.39"   Gusts: NA
Location:  39.5383°N, 119.938°W
Report Text: KRNO 240755Z 00000KT 10SM CLR 00/M04 A3039 RMK AO2 SLP295 T00001044 400781028
Loading
Personal Weather Stations






























Interactive Weather Map New forecast layout! Learn more

10-Day Weather Forecast

Advertisements
Track Severe Weather on mobile